createdAt,value
2022-11-03T00:01:40.756Z,78.91
2022-11-03T00:04:09.742Z,78.93
2022-11-03T00:06:37.973Z,78.98
2022-11-03T00:09:08.688Z,79.56
2022-11-03T00:11:37.938Z,79.69
2022-11-03T00:14:06.414Z,79.78
2022-11-03T00:16:34.266Z,79.73
2022-11-03T00:19:01.782Z,79.76
2022-11-03T00:21:29.885Z,79.73
2022-11-03T00:23:57.650Z,79.64
2022-11-03T00:26:28.558Z,79.21
2022-11-03T00:28:57.717Z,80.31
2022-11-03T00:31:27.375Z,79.32
2022-11-03T00:33:56.095Z,79.40
2022-11-03T00:36:25.569Z,79.94
2022-11-03T00:38:53.108Z,79.44
2022-11-03T00:41:22.193Z,79.51
2022-11-03T00:43:52.355Z,79.55
2022-11-03T00:46:21.531Z,79.55
2022-11-03T00:48:49.510Z,79.24
2022-11-03T00:51:19.202Z,79.58
2022-11-03T00:53:48.394Z,79.39
2022-11-03T00:56:18.474Z,79.48
2022-11-03T00:58:46.766Z,79.48
2022-11-03T01:01:18.011Z,79.88
2022-11-03T01:04:08.665Z,79.21
2022-11-03T01:06:52.066Z,79.31
2022-11-03T01:09:20.479Z,79.40
2022-11-03T01:11:55.110Z,79.69
2022-11-03T01:14:23.052Z,80.50
2022-11-03T01:16:52.141Z,79.41
2022-11-03T01:19:19.821Z,80.04
2022-11-03T01:21:47.339Z,79.68
2022-11-03T01:24:14.860Z,79.20
2022-11-03T01:27:37.367Z,79.84
2022-11-03T01:30:05.557Z,79.49
2022-11-03T01:32:34.536Z,78.85
2022-11-03T01:35:02.309Z,78.33
2022-11-03T01:37:29.992Z,78.90
2022-11-03T01:39:57.634Z,80.41
2022-11-03T01:42:25.322Z,79.49
2022-11-03T01:44:52.943Z,79.79
2022-11-03T01:47:25.511Z,78.99
2022-11-03T01:50:00.265Z,78.92
2022-11-03T01:52:33.970Z,79.70
2022-11-03T01:55:05.578Z,80.00
2022-11-03T01:57:38.498Z,79.68
2022-11-03T02:00:07.902Z,79.70
2022-11-03T02:02:35.979Z,78.89
2022-11-03T02:05:07.259Z,79.21
2022-11-03T02:11:38.989Z,79.91
2022-11-03T02:14:06.458Z,79.40
2022-11-03T02:16:34.185Z,79.01
2022-11-03T02:19:03.381Z,78.45
2022-11-03T02:21:41.418Z,79.85
2022-11-03T02:24:14.842Z,79.09
2022-11-03T02:26:48.191Z,79.46
2022-11-03T02:29:17.430Z,79.47
2022-11-03T02:31:51.573Z,79.20
2022-11-03T02:34:24.586Z,79.30
2022-11-03T02:36:57.550Z,79.94
2022-11-03T02:39:29.870Z,80.04
2022-11-03T02:42:01.535Z,79.62
2022-11-03T02:44:30.206Z,79.95
2022-11-03T02:47:01.619Z,79.46
2022-11-03T02:49:29.390Z,79.52
2022-11-03T02:52:01.546Z,80.11
2022-11-03T02:54:34.871Z,80.24
2022-11-03T02:57:08.858Z,78.98
2022-11-03T02:59:55.188Z,79.36
2022-11-03T03:02:28.695Z,78.74
2022-11-03T03:05:01.815Z,80.58
2022-11-03T03:07:32.722Z,78.68
2022-11-03T03:10:03.925Z,79.16
2022-11-03T03:12:35.946Z,80.52
2022-11-03T03:15:05.990Z,80.30
2022-11-03T03:17:39.733Z,80.30
2022-11-03T03:20:14.162Z,80.10
2022-11-03T03:22:47.436Z,79.20
2022-11-03T03:25:22.781Z,79.21
2022-11-03T03:27:58.293Z,78.53
2022-11-03T03:30:26.414Z,79.82
2022-11-03T03:32:57.782Z,79.08
2022-11-03T03:35:30.748Z,79.96
2022-11-03T03:38:03.318Z,79.25
2022-11-03T03:40:35.493Z,78.22
2022-11-03T03:43:08.189Z,78.83
2022-11-03T03:45:37.017Z,78.60
2022-11-03T03:48:05.031Z,79.13
2022-11-03T03:50:36.324Z,78.73
2022-11-03T03:53:06.505Z,78.38
2022-11-03T03:55:37.137Z,79.65
2022-11-03T03:58:07.906Z,78.81
2022-11-03T04:00:35.586Z,78.94
2022-11-03T04:03:03.100Z,78.95
2022-11-03T04:05:30.622Z,79.97
2022-11-03T04:07:58.510Z,79.81
2022-11-03T04:10:26.170Z,80.91
2022-11-03T04:13:11.609Z,80.63
2022-11-03T04:15:58.210Z,80.70
2022-11-03T04:18:43.526Z,80.71
2022-11-03T04:21:30.978Z,80.11
2022-11-03T04:24:00.185Z,80.30
2022-11-03T04:26:28.823Z,81.29
2022-11-03T04:28:57.123Z,80.97
2022-11-03T04:31:29.669Z,80.50
2022-11-03T04:33:57.451Z,80.14
2022-11-03T04:36:27.023Z,81.32
2022-11-03T04:38:54.517Z,81.29
2022-11-03T04:41:24.943Z,81.22
2022-11-03T04:43:53.661Z,80.53
2022-11-03T04:46:27.246Z,80.97
2022-11-03T04:48:55.722Z,81.68
2022-11-03T04:51:26.112Z,81.97
2022-11-03T04:53:56.339Z,81.59
2022-11-03T04:56:25.881Z,81.79
2022-11-03T04:58:54.217Z,82.01
2022-11-03T05:01:24.874Z,81.40
2022-11-03T05:03:55.838Z,83.06
2022-11-03T05:06:25.209Z,82.27
2022-11-03T05:08:56.004Z,81.89
2022-11-03T05:11:30.860Z,81.74
2022-11-03T05:14:00.331Z,81.91
2022-11-03T05:16:29.234Z,81.58
2022-11-03T05:18:58.479Z,82.93
2022-11-03T05:21:28.476Z,83.37
2022-11-03T05:23:59.571Z,81.77
2022-11-03T05:26:31.816Z,87.32
2022-11-03T05:29:03.111Z,86.54
2022-11-03T05:31:32.192Z,84.26
2022-11-03T05:34:02.856Z,83.91
2022-11-03T05:36:32.776Z,83.57
2022-11-03T05:39:22.156Z,83.87
2022-11-03T05:41:49.647Z,82.68
2022-11-03T05:44:29.892Z,82.12
2022-11-03T05:47:00.955Z,82.96
2022-11-03T05:49:32.079Z,82.76
2022-11-03T05:52:01.503Z,82.73
2022-11-03T05:54:33.378Z,82.60
2022-11-03T05:57:02.246Z,82.78
2022-11-03T05:59:30.220Z,82.25
2022-11-03T06:02:00.952Z,82.30
2022-11-03T06:04:33.672Z,82.66
2022-11-03T06:07:04.045Z,83.38
2022-11-03T06:09:34.916Z,81.79
2022-11-03T06:12:06.497Z,82.46
2022-11-03T06:14:34.730Z,82.37
2022-11-03T06:17:05.909Z,85.66
2022-11-03T06:19:39.095Z,84.26
2022-11-03T06:22:14.868Z,83.69
2022-11-03T06:24:43.538Z,83.53
2022-11-03T06:27:15.294Z,83.63
2022-11-03T06:29:46.727Z,83.29
2022-11-03T06:32:14.449Z,83.89
2022-11-03T06:34:46.514Z,84.13
2022-11-03T06:37:20.823Z,83.67
2022-11-03T06:39:49.589Z,84.45
2022-11-03T06:42:23.118Z,84.87
2022-11-03T06:44:52.467Z,84.92
2022-11-03T06:47:23.943Z,85.14
2022-11-03T06:49:54.814Z,85.04
2022-11-03T06:52:28.011Z,85.04
2022-11-03T06:55:01.199Z,85.70
2022-11-03T06:57:31.629Z,85.49
2022-11-03T07:00:13.354Z,85.38
2022-11-03T07:03:08.271Z,86.46
2022-11-03T07:05:38.840Z,85.86
2022-11-03T07:08:22.215Z,87.72
2022-11-03T07:10:51.460Z,87.30
2022-11-03T07:13:23.550Z,86.63
2022-11-03T07:15:51.879Z,87.74
2022-11-03T07:18:23.964Z,87.52
2022-11-03T07:20:54.423Z,86.72
2022-11-03T07:23:25.527Z,92.31
2022-11-03T07:25:55.176Z,95.46
2022-11-03T07:28:35.993Z,98.01
2022-11-03T07:31:16.504Z,100.00
2022-11-03T07:33:44.391Z,100.00
2022-11-03T07:36:17.651Z,91.83
2022-11-03T07:38:48.910Z,93.59
2022-11-03T07:41:19.500Z,93.27
2022-11-03T07:43:54.260Z,100.00
2022-11-03T07:46:23.017Z,99.08
2022-11-03T07:48:52.851Z,98.89
2022-11-03T07:51:25.004Z,100.00
2022-11-03T07:53:55.894Z,99.62
2022-11-03T07:56:25.998Z,100.00
2022-11-03T07:58:56.851Z,100.00
2022-11-03T08:01:28.171Z,100.00
2022-11-03T08:03:59.405Z,100.00
2022-11-03T08:06:28.305Z,100.00
2022-11-03T08:08:55.657Z,100.00
2022-11-03T08:11:27.772Z,100.00
2022-11-03T08:13:57.123Z,100.00
2022-11-03T08:16:24.691Z,100.00
2022-11-03T08:18:52.163Z,100.00
2022-11-03T08:21:19.640Z,100.00
2022-11-03T08:23:48.471Z,100.00
2022-11-03T08:26:15.854Z,100.00
2022-11-03T08:28:43.176Z,100.00
2022-11-03T08:31:12.930Z,100.00
2022-11-03T08:33:42.083Z,100.00
2022-11-03T08:36:10.092Z,100.00
2022-11-03T08:38:38.012Z,100.00
2022-11-03T08:41:06.980Z,100.00
2022-11-03T08:43:34.451Z,100.00
2022-11-03T08:46:09.782Z,100.00
2022-11-03T08:48:40.715Z,100.00
2022-11-03T08:51:10.195Z,100.00
2022-11-03T08:53:38.410Z,100.00
2022-11-03T08:56:10.539Z,100.00
2022-11-03T08:58:40.649Z,100.00
2022-11-03T09:01:08.181Z,100.00
2022-11-03T09:03:35.887Z,100.00
2022-11-03T09:06:03.477Z,100.00
2022-11-03T09:11:19.754Z,100.00
2022-11-03T09:13:47.059Z,100.00
2022-11-03T09:16:14.385Z,100.00
2022-11-03T09:18:41.721Z,100.00
2022-11-03T09:21:09.368Z,100.00
2022-11-03T09:23:36.879Z,100.00
2022-11-03T09:26:06.161Z,100.00
2022-11-03T09:28:34.963Z,100.00
2022-11-03T09:31:02.280Z,100.00
2022-11-03T09:33:29.624Z,100.00
2022-11-03T09:35:56.955Z,100.00
2022-11-03T09:38:24.450Z,100.00
2022-11-03T09:40:52.016Z,100.00
2022-11-03T09:43:20.012Z,100.00
2022-11-03T09:45:48.935Z,100.00
2022-11-03T09:48:16.649Z,100.00
2022-11-03T09:50:44.279Z,100.00
2022-11-03T09:53:13.163Z,100.00
2022-11-03T09:55:41.236Z,100.00
2022-11-03T09:58:13.628Z,100.00
2022-11-03T10:00:41.265Z,100.00
2022-11-03T10:03:13.220Z,100.00
2022-11-03T10:05:41.303Z,100.00
2022-11-03T10:08:21.493Z,100.00
2022-11-03T10:10:50.524Z,99.17
2022-11-03T10:13:26.372Z,100.00
2022-11-03T10:15:54.123Z,100.00
2022-11-03T10:18:22.991Z,99.41
2022-11-03T10:20:50.629Z,99.49
2022-11-03T10:23:18.092Z,98.18
2022-11-03T10:25:46.402Z,100.00
2022-11-03T10:28:22.271Z,99.59
2022-11-03T10:33:52.954Z,99.29
2022-11-03T10:36:25.552Z,96.79
2022-11-03T10:38:53.953Z,96.19
2022-11-03T10:41:22.781Z,93.92
2022-11-03T10:44:05.631Z,96.75
2022-11-03T10:46:50.184Z,98.04
2022-11-03T10:49:21.199Z,98.55
2022-11-03T10:51:51.161Z,98.69
2022-11-03T10:54:20.732Z,96.56
2022-11-03T10:56:49.771Z,96.60
2022-11-03T10:59:19.435Z,96.17
2022-11-03T11:01:47.284Z,97.59
2022-11-03T11:04:17.382Z,97.91
2022-11-03T11:06:47.022Z,97.45
2022-11-03T11:09:18.404Z,96.56
2022-11-03T11:12:00.033Z,97.90
2022-11-03T11:14:39.244Z,96.69
2022-11-03T11:17:13.016Z,95.03
2022-11-03T11:20:21.092Z,95.99
2022-11-03T11:22:51.242Z,96.45
2022-11-03T11:25:19.535Z,98.16
2022-11-03T11:28:19.496Z,96.43
2022-11-03T11:31:23.347Z,96.82
2022-11-03T11:33:50.974Z,92.76
2022-11-03T11:36:24.440Z,92.82
2022-11-03T11:38:58.978Z,95.12
2022-11-03T11:41:59.609Z,96.77
2022-11-03T11:44:49.151Z,93.33
2022-11-03T11:47:30.241Z,93.77
2022-11-03T11:50:31.275Z,96.01
2022-11-03T11:53:01.871Z,96.81
2022-11-03T11:55:39.250Z,95.39
2022-11-03T11:58:15.544Z,95.47
2022-11-03T12:00:53.068Z,96.90
2022-11-03T12:03:26.462Z,96.00
2022-11-03T12:05:54.006Z,96.22
2022-11-03T12:08:28.504Z,95.58
2022-11-03T12:10:59.166Z,93.23
2022-11-03T12:13:41.752Z,94.14
2022-11-03T12:16:09.877Z,92.63
2022-11-03T12:18:41.684Z,92.71
2022-11-03T12:21:14.288Z,92.27
2022-11-03T12:23:43.359Z,94.62
2022-11-03T12:26:18.522Z,94.15
2022-11-03T12:28:46.218Z,92.06
2022-11-03T12:31:13.859Z,95.24
2022-11-03T12:33:41.359Z,95.67
2022-11-03T12:36:09.861Z,95.29
2022-11-03T12:38:37.536Z,95.43
2022-11-03T12:41:19.504Z,95.68
2022-11-03T12:43:49.475Z,94.78
2022-11-03T12:46:17.576Z,95.40
2022-11-03T12:48:45.078Z,98.03
2022-11-03T12:51:13.655Z,96.50
2022-11-03T12:53:41.181Z,96.21
2022-11-03T12:56:09.878Z,96.07
2022-11-03T12:58:38.171Z,96.06
2022-11-03T13:01:07.927Z,95.17
2022-11-03T13:03:36.950Z,95.92
2022-11-03T13:06:09.821Z,94.66
2022-11-03T13:08:37.950Z,94.51
2022-11-03T13:11:26.071Z,96.50
2022-11-03T13:13:54.065Z,96.19
2022-11-03T13:16:23.155Z,97.16
2022-11-03T13:18:50.644Z,96.89
2022-11-03T13:21:18.439Z,97.61
2022-11-03T13:23:46.181Z,97.05
2022-11-03T13:26:13.647Z,97.18
2022-11-03T13:28:41.550Z,96.26
2022-11-03T13:31:09.295Z,97.15
2022-11-03T13:33:38.104Z,97.25
2022-11-03T13:36:06.399Z,97.76
2022-11-03T13:38:34.083Z,96.43
2022-11-03T13:41:07.246Z,97.61
2022-11-03T13:43:36.399Z,97.51
2022-11-03T13:46:05.031Z,97.71
2022-11-03T13:51:21.742Z,97.83
2022-11-03T14:04:44.824Z,98.55
2022-11-03T14:07:13.937Z,98.18
2022-11-03T14:09:41.976Z,98.58
2022-11-03T14:12:27.236Z,98.62
2022-11-03T14:14:54.784Z,98.98
2022-11-03T14:17:22.246Z,98.90
2022-11-03T14:19:52.718Z,99.07
2022-11-03T14:22:23.329Z,99.44
2022-11-03T14:24:51.505Z,98.99
2022-11-03T14:27:19.795Z,98.77
2022-11-03T14:29:49.619Z,99.21
2022-11-03T14:32:18.313Z,99.37
2022-11-03T14:34:45.727Z,99.13
2022-11-03T14:37:13.839Z,99.45
2022-11-03T14:39:43.031Z,99.90
2022-11-03T14:42:15.207Z,99.39
2022-11-03T14:44:44.507Z,99.43
2022-11-03T14:47:13.654Z,99.65
2022-11-03T14:49:41.345Z,99.34
2022-11-03T14:52:08.980Z,99.04
2022-11-03T14:54:37.034Z,99.90
2022-11-03T14:57:06.355Z,99.54
2022-11-03T14:59:34.772Z,100.00
2022-11-03T15:02:03.327Z,99.51
2022-11-03T15:04:31.191Z,99.76
2022-11-03T15:06:58.709Z,99.41
2022-11-03T15:09:26.177Z,99.41
2022-11-03T15:11:54.093Z,99.66
2022-11-03T15:14:22.896Z,99.87
2022-11-03T15:16:50.371Z,100.00
2022-11-03T15:19:17.916Z,99.86
2022-11-03T15:21:45.458Z,100.00
2022-11-03T15:27:00.386Z,100.00
2022-11-03T15:29:29.186Z,100.00
2022-11-03T15:31:56.661Z,100.00
2022-11-03T15:34:24.228Z,100.00
2022-11-03T15:36:51.740Z,100.00
2022-11-03T15:39:19.256Z,100.00
2022-11-03T15:41:46.721Z,100.00
2022-11-03T15:44:14.220Z,100.00
2022-11-03T15:46:43.065Z,99.84
2022-11-03T15:49:10.550Z,99.34
2022-11-03T15:51:38.056Z,99.32
2022-11-03T15:54:05.583Z,99.16
2022-11-03T15:56:33.063Z,99.62
2022-11-03T15:59:00.562Z,99.31
2022-11-03T16:01:28.259Z,100.00
2022-11-03T16:03:57.195Z,100.00
2022-11-03T16:06:46.462Z,100.00
2022-11-03T16:09:12.573Z,100.00
2022-11-03T16:11:40.070Z,99.51
2022-11-03T16:14:07.561Z,100.00
2022-11-03T16:16:35.034Z,100.00
2022-11-03T16:19:04.231Z,99.84
2022-11-03T16:21:31.702Z,99.36
2022-11-03T16:23:59.212Z,99.71
2022-11-03T16:26:26.738Z,99.85
2022-11-03T16:28:54.256Z,100.00
2022-11-03T16:31:21.727Z,99.36
2022-11-03T16:33:49.189Z,100.00
2022-11-03T16:36:18.577Z,100.00
2022-11-03T16:38:46.086Z,100.00
2022-11-03T16:41:13.770Z,99.78
2022-11-03T16:43:41.227Z,99.06
2022-11-03T16:46:08.702Z,99.81
2022-11-03T16:48:36.162Z,100.00
2022-11-03T16:51:03.613Z,99.89
2022-11-03T16:53:32.466Z,99.03
2022-11-03T16:56:00.015Z,98.29
2022-11-03T16:58:27.540Z,100.00
2022-11-03T17:00:55.197Z,100.00
2022-11-03T17:03:22.761Z,99.95
2022-11-03T17:05:50.280Z,99.72
2022-11-03T17:08:46.904Z,99.60
2022-11-03T17:11:06.988Z,100.00
2022-11-03T17:13:34.500Z,100.00
2022-11-03T17:16:01.993Z,99.52
2022-11-03T17:18:29.739Z,99.54
2022-11-03T17:20:57.391Z,99.35
2022-11-03T17:23:24.884Z,99.07
2022-11-03T17:25:52.406Z,99.61
2022-11-03T17:28:21.316Z,98.73
2022-11-03T17:30:48.844Z,98.63
2022-11-03T17:33:19.566Z,98.72
2022-11-03T17:35:47.647Z,98.31
2022-11-03T17:38:17.160Z,98.17
2022-11-03T17:40:46.827Z,97.91
2022-11-03T17:43:20.315Z,98.00
2022-11-03T17:45:49.641Z,98.41
2022-11-03T17:48:17.182Z,98.53
2022-11-03T17:50:47.468Z,97.68
2022-11-03T17:53:21.900Z,99.67
2022-11-03T17:56:08.898Z,97.81
2022-11-03T17:58:44.846Z,98.99
2022-11-03T18:01:20.227Z,98.80
2022-11-03T18:03:47.814Z,98.69
2022-11-03T18:06:18.876Z,97.41
2022-11-03T18:08:46.416Z,98.64
2022-11-03T18:11:30.728Z,99.36
2022-11-03T18:13:58.412Z,98.61
2022-11-03T18:16:27.465Z,100.00
2022-11-03T18:18:55.109Z,100.00
2022-11-03T18:21:24.196Z,100.00
2022-11-03T18:23:51.732Z,100.00
2022-11-03T18:26:20.678Z,100.00
2022-11-03T18:28:49.169Z,100.00
2022-11-03T18:31:21.620Z,100.00
2022-11-03T18:33:50.736Z,100.00
2022-11-03T18:36:19.546Z,100.00
2022-11-03T18:38:48.355Z,100.00
2022-11-03T18:41:39.205Z,100.00
2022-11-03T18:44:14.061Z,100.00
2022-11-03T18:46:41.439Z,100.00
2022-11-03T18:49:10.319Z,100.00
2022-11-03T18:51:38.303Z,100.00
2022-11-03T18:54:06.480Z,100.00
2022-11-03T18:56:37.261Z,100.00
2022-11-03T18:59:06.071Z,100.00
2022-11-03T19:01:33.733Z,100.00
2022-11-03T19:04:01.656Z,100.00
2022-11-03T19:06:30.509Z,100.00
2022-11-03T19:09:00.318Z,100.00
2022-11-03T19:11:28.216Z,100.00
2022-11-03T19:13:55.937Z,100.00
2022-11-03T19:16:24.925Z,100.00
2022-11-03T19:18:52.743Z,100.00
2022-11-03T19:21:23.346Z,100.00
2022-11-03T19:23:58.162Z,100.00
2022-11-03T19:26:30.288Z,100.00
2022-11-03T19:29:01.272Z,100.00
2022-11-03T19:31:33.423Z,100.00
2022-11-03T19:34:01.719Z,100.00
2022-11-03T19:36:31.208Z,100.00
2022-11-03T19:39:00.981Z,100.00
2022-11-03T19:41:46.292Z,100.00
2022-11-03T19:44:14.539Z,100.00
2022-11-03T19:46:42.867Z,100.00
2022-11-03T19:49:14.481Z,100.00
2022-11-03T19:51:42.181Z,100.00
2022-11-03T19:54:16.377Z,100.00
2022-11-03T19:56:43.960Z,100.00
2022-11-03T19:59:13.294Z,100.00
2022-11-03T20:01:40.918Z,100.00
2022-11-03T20:04:09.475Z,100.00
2022-11-03T20:06:38.098Z,99.82
2022-11-03T20:09:08.389Z,100.00
2022-11-03T20:11:37.864Z,100.00
2022-11-03T20:14:05.732Z,100.00
2022-11-03T20:16:33.216Z,100.00
2022-11-03T20:19:00.717Z,100.00
2022-11-03T20:21:34.223Z,99.97
2022-11-03T20:24:02.253Z,100.00
2022-11-03T20:26:30.110Z,100.00
2022-11-03T20:29:00.117Z,100.00
2022-11-03T20:31:27.755Z,100.00
2022-11-03T20:33:55.228Z,100.00
2022-11-03T20:36:22.730Z,100.00
2022-11-03T20:38:53.211Z,100.00
2022-11-03T20:41:20.816Z,100.00
2022-11-03T20:43:49.591Z,100.00
2022-11-03T20:46:29.008Z,100.00
2022-11-03T20:48:57.491Z,100.00
2022-11-03T20:51:27.733Z,99.45
2022-11-03T20:53:55.822Z,100.00
2022-11-03T20:56:25.237Z,100.00
2022-11-03T20:58:53.517Z,100.00
2022-11-03T21:01:27.475Z,99.77
2022-11-03T21:04:00.290Z,100.00
2022-11-03T21:06:29.943Z,100.00
2022-11-03T21:08:57.623Z,100.00
2022-11-03T21:11:40.343Z,100.00
2022-11-03T21:14:15.357Z,100.00
2022-11-03T21:17:01.987Z,99.34
2022-11-03T21:19:49.196Z,100.00
2022-11-03T21:22:50.210Z,100.00
2022-11-03T21:25:11.430Z,100.00
2022-11-03T21:27:41.720Z,100.00
2022-11-03T21:30:11.645Z,100.00
2022-11-03T21:32:40.568Z,100.00
2022-11-03T21:35:08.876Z,100.00
2022-11-03T21:37:36.376Z,99.35
2022-11-03T21:40:04.021Z,100.00
2022-11-03T21:42:49.311Z,100.00
2022-11-03T21:45:18.620Z,99.75
2022-11-03T21:48:13.231Z,98.24
2022-11-03T21:50:40.367Z,98.79
2022-11-03T21:53:08.304Z,97.72
2022-11-03T21:55:36.704Z,97.54
2022-11-03T21:58:04.982Z,97.29
2022-11-03T22:00:33.104Z,99.28
2022-11-03T22:03:02.294Z,97.99
2022-11-03T22:05:30.080Z,97.65
2022-11-03T22:07:57.587Z,97.71
2022-11-03T22:10:25.893Z,97.29
2022-11-03T22:12:53.402Z,97.50
2022-11-03T22:15:38.454Z,100.00
2022-11-03T22:18:08.154Z,100.00
2022-11-03T22:20:55.073Z,99.44
2022-11-03T22:23:40.315Z,100.00
2022-11-03T22:26:28.465Z,98.45
2022-11-03T22:29:12.432Z,99.75
2022-11-03T22:31:42.634Z,100.00
2022-11-03T22:34:29.389Z,100.00
2022-11-03T22:36:56.926Z,99.31
2022-11-03T22:39:42.309Z,97.72
2022-11-03T22:42:29.328Z,99.54
2022-11-03T22:45:14.020Z,99.54
2022-11-03T22:47:41.511Z,98.79
2022-11-03T22:50:10.882Z,97.86
2022-11-03T22:52:38.393Z,97.59
2022-11-03T22:55:05.390Z,98.14
2022-11-03T22:57:32.957Z,98.99
2022-11-03T23:00:00.456Z,100.00
2022-11-03T23:02:27.961Z,99.79
2022-11-03T23:04:55.483Z,98.83
2022-11-03T23:07:29.941Z,98.34
2022-11-03T23:09:59.113Z,99.02
2022-11-03T23:12:26.614Z,100.00
2022-11-03T23:15:11.943Z,100.00
2022-11-03T23:17:57.278Z,98.99
2022-11-03T23:20:42.623Z,98.15
2022-11-03T23:23:31.505Z,98.71
2022-11-03T23:25:57.978Z,99.69
2022-11-03T23:28:25.496Z,97.83
2022-11-03T23:30:53.013Z,98.47
2022-11-03T23:33:20.471Z,97.68
2022-11-03T23:35:47.982Z,97.91
2022-11-03T23:38:16.805Z,97.89
2022-11-03T23:40:44.314Z,99.00
2022-11-03T23:43:11.858Z,99.97
2022-11-03T23:45:56.963Z,99.08
2022-11-03T23:48:42.745Z,99.26
2022-11-03T23:51:10.222Z,99.74
2022-11-03T23:53:39.073Z,98.35
2022-11-03T23:56:25.242Z,98.83
2022-11-03T23:58:53.146Z,99.23
